createdAt,value
2018-01-10T00:00:07.378Z,16.93
2018-01-10T00:02:34.538Z,15.87
2018-01-10T00:05:01.663Z,17.70
2018-01-10T00:07:28.088Z,15.50
2018-01-10T00:09:54.470Z,17.20
2018-01-10T00:12:21.620Z,19.10
2018-01-10T00:14:48.804Z,16.40
2018-01-10T00:17:15.946Z,19.10
2018-01-10T00:19:43.193Z,13.77
2018-01-10T00:22:10.363Z,19.33
2018-01-10T00:24:36.778Z,23.30
2018-01-10T00:27:03.306Z,19.60
2018-01-10T00:29:30.497Z,27.30
2018-01-10T00:31:56.902Z,17.50
2018-01-10T00:34:24.058Z,24.17
2018-01-10T00:36:51.187Z,21.70
2018-01-10T00:39:19.124Z,21.17
2018-01-10T00:41:45.712Z,18.53
2018-01-10T00:44:12.116Z,19.27
2018-01-10T00:46:38.535Z,19.30
2018-01-10T00:49:05.249Z,22.53
2018-01-10T00:51:31.669Z,19.40
2018-01-10T00:53:58.123Z,18.50
2018-01-10T00:56:24.554Z,19.10
2018-01-10T00:58:50.946Z,14.90
2018-01-10T01:01:18.126Z,17.00
2018-01-10T01:03:45.976Z,19.60
2018-01-10T01:06:12.395Z,18.47
2018-01-10T01:08:38.835Z,15.00
2018-01-10T01:11:05.259Z,17.80
2018-01-10T01:13:31.673Z,13.83
2018-01-10T01:15:58.075Z,20.20
2018-01-10T01:18:24.494Z,20.57
2018-01-10T01:20:50.961Z,15.63
2018-01-10T01:23:17.396Z,17.10
2018-01-10T01:25:43.827Z,14.70
2018-01-10T01:28:10.248Z,13.97
2018-01-10T01:30:36.670Z,16.33
2018-01-10T01:33:03.118Z,16.60
2018-01-10T01:35:30.312Z,18.73
2018-01-10T01:37:56.747Z,19.03
2018-01-10T01:40:23.215Z,22.20
2018-01-10T01:42:49.651Z,17.60
2018-01-10T01:45:16.103Z,16.33
2018-01-10T01:47:42.516Z,18.73
2018-01-10T01:50:09.683Z,20.77
2018-01-10T01:52:36.908Z,23.93
2018-01-10T01:55:03.381Z,20.43
2018-01-10T01:57:29.839Z,21.87
2018-01-10T01:59:57.016Z,25.00
2018-01-10T02:02:23.484Z,15.50
2018-01-10T02:04:49.961Z,21.33
2018-01-10T02:07:16.406Z,16.03
2018-01-10T02:09:42.856Z,21.80
2018-01-10T02:12:11.500Z,20.87
2018-01-10T02:14:37.970Z,20.57
2018-01-10T02:17:05.217Z,16.30
2018-01-10T02:19:31.761Z,22.00
2018-01-10T02:21:58.230Z,19.40
2018-01-10T02:24:24.668Z,20.20
2018-01-10T02:26:51.115Z,19.17
2018-01-10T02:29:17.565Z,17.40
2018-01-10T02:31:44.034Z,29.33
2018-01-10T02:34:11.237Z,17.60
2018-01-10T02:36:37.949Z,16.57
2018-01-10T02:39:05.216Z,20.07
2018-01-10T02:41:31.646Z,18.23
2018-01-10T02:43:58.889Z,22.30
2018-01-10T02:46:25.302Z,19.70
2018-01-10T02:48:51.814Z,20.67
2018-01-10T02:51:18.265Z,18.50
2018-01-10T02:53:44.783Z,20.27
2018-01-10T02:56:13.024Z,17.80
2018-01-10T02:58:40.208Z,17.03
2018-01-10T03:01:06.653Z,17.27
2018-01-10T03:03:33.088Z,19.87
2018-01-10T03:06:00.263Z,17.40
2018-01-10T03:08:26.758Z,20.33
2018-01-10T03:10:53.991Z,24.83
2018-01-10T03:13:20.469Z,16.70
2018-01-10T03:15:46.972Z,17.10
2018-01-10T03:18:13.445Z,21.10
2018-01-10T03:20:39.902Z,17.10
2018-01-10T03:23:06.338Z,17.33
2018-01-10T03:25:32.805Z,18.47
2018-01-10T03:27:59.232Z,18.53
2018-01-10T03:30:25.659Z,22.60
2018-01-10T03:32:52.148Z,19.90
2018-01-10T03:35:19.331Z,19.17
2018-01-10T03:37:45.799Z,16.37
2018-01-10T03:40:12.383Z,16.97
2018-01-10T03:42:38.829Z,16.90
2018-01-10T03:45:05.249Z,15.10
2018-01-10T03:47:31.688Z,23.83
2018-01-10T03:49:58.100Z,18.00
2018-01-10T03:52:25.266Z,30.83
2018-01-10T03:54:52.996Z,14.27
2018-01-10T03:57:19.412Z,16.40
2018-01-10T03:59:45.875Z,14.80
2018-01-10T04:02:12.432Z,16.87
2018-01-10T04:04:38.927Z,26.43
2018-01-10T04:07:06.072Z,14.63
2018-01-10T04:09:32.496Z,20.63
2018-01-10T04:11:58.975Z,18.13
2018-01-10T04:14:25.415Z,13.90
2018-01-10T04:16:51.921Z,17.53
2018-01-10T04:19:18.359Z,16.90
2018-01-10T04:21:44.827Z,17.50
2018-01-10T04:24:11.236Z,15.23
2018-01-10T04:26:37.708Z,15.80
2018-01-10T04:29:04.232Z,13.90
2018-01-10T04:31:30.670Z,16.03
2018-01-10T04:33:57.139Z,20.07
2018-01-10T04:36:23.571Z,14.00
2018-01-10T04:38:50.016Z,14.67
2018-01-10T04:41:16.484Z,17.57
2018-01-10T04:43:42.905Z,15.37
2018-01-10T04:46:09.383Z,14.27
2018-01-10T04:48:35.815Z,16.37
2018-01-10T04:51:02.666Z,21.97
2018-01-10T04:53:29.966Z,14.50
2018-01-10T04:55:56.398Z,14.00
2018-01-10T04:58:23.593Z,13.23
2018-01-10T05:00:50.012Z,13.30
2018-01-10T05:03:17.183Z,12.17
2018-01-10T05:05:43.736Z,14.30
2018-01-10T05:08:10.184Z,12.50
2018-01-10T05:10:36.675Z,13.40
2018-01-10T05:13:03.435Z,14.80
2018-01-10T05:15:29.900Z,15.60
2018-01-10T05:17:56.364Z,16.37
2018-01-10T05:20:22.854Z,16.53
2018-01-10T05:22:49.264Z,15.83
2018-01-10T05:25:15.772Z,13.97
2018-01-10T05:27:42.192Z,12.03
2018-01-10T05:30:10.149Z,13.63
2018-01-10T05:32:36.587Z,15.37
2018-01-10T05:35:04.007Z,15.43
2018-01-10T05:37:30.432Z,12.83
2018-01-10T05:39:56.946Z,12.47
2018-01-10T05:42:23.397Z,15.20
2018-01-10T05:44:50.812Z,14.00
2018-01-10T05:47:17.356Z,15.87
2018-01-10T05:49:43.824Z,16.93
2018-01-10T05:52:11.065Z,13.60
2018-01-10T05:54:37.918Z,10.63
2018-01-10T05:57:05.186Z,12.73
2018-01-10T05:59:32.385Z,15.00
2018-01-10T06:01:58.837Z,12.73
2018-01-10T06:04:26.485Z,14.83
2018-01-10T06:06:54.132Z,12.47
2018-01-10T06:09:20.734Z,14.87
2018-01-10T06:11:47.236Z,17.03
2018-01-10T06:14:13.806Z,14.77
2018-01-10T06:16:41.084Z,11.87
2018-01-10T06:19:08.509Z,12.90
2018-01-10T06:21:35.793Z,15.73
2018-01-10T06:24:02.425Z,15.30
2018-01-10T06:26:28.861Z,15.93
2018-01-10T06:28:55.327Z,14.93
2018-01-10T06:31:22.502Z,12.37
2018-01-10T06:33:49.691Z,12.77
2018-01-10T06:36:16.164Z,12.40
2018-01-10T06:38:43.415Z,14.70
2018-01-10T06:41:09.871Z,15.57
2018-01-10T06:43:36.348Z,12.30
2018-01-10T06:46:03.196Z,13.63
2018-01-10T06:48:29.756Z,11.70
2018-01-10T06:50:56.953Z,15.30
2018-01-10T06:53:23.400Z,10.80
2018-01-10T06:55:49.889Z,11.93
2018-01-10T06:58:16.298Z,14.83
2018-01-10T07:00:44.359Z,10.50
2018-01-10T07:03:11.550Z,12.40
2018-01-10T07:05:38.065Z,10.57
2018-01-10T07:08:04.884Z,14.77
2018-01-10T07:10:31.551Z,12.63
2018-01-10T07:12:58.282Z,13.50
2018-01-10T07:15:24.904Z,9.90
2018-01-10T07:17:51.597Z,12.00
2018-01-10T07:20:19.847Z,13.20
2018-01-10T07:22:46.745Z,10.97
2018-01-10T07:25:13.552Z,12.70
2018-01-10T07:27:40.276Z,10.73
2018-01-10T07:30:07.970Z,14.60
2018-01-10T07:32:34.547Z,10.73
2018-01-10T07:35:02.857Z,10.33
2018-01-10T07:37:29.528Z,10.57
2018-01-10T07:39:56.127Z,9.60
2018-01-10T07:42:22.788Z,12.17
2018-01-10T07:44:50.083Z,13.10
2018-01-10T07:47:16.975Z,11.90
2018-01-10T07:49:43.485Z,10.17
2018-01-10T07:52:10.112Z,10.33
2018-01-10T07:54:37.372Z,10.53
2018-01-10T07:57:04.705Z,17.90
2018-01-10T07:59:31.328Z,11.57
2018-01-10T08:01:57.938Z,11.30
2018-01-10T08:04:25.076Z,10.30
2018-01-10T08:06:52.432Z,11.43
2018-01-10T08:09:19.769Z,12.53
2018-01-10T08:11:46.277Z,18.97
2018-01-10T08:14:12.881Z,12.70
2018-01-10T08:16:39.385Z,11.00
2018-01-10T08:19:06.632Z,12.27
2018-01-10T08:21:33.185Z,14.37
2018-01-10T08:24:01.017Z,13.50
2018-01-10T08:26:27.664Z,15.00
2018-01-10T08:28:54.199Z,15.93
2018-01-10T08:31:20.697Z,8.60
2018-01-10T08:33:47.192Z,11.30
2018-01-10T08:36:13.785Z,11.03
2018-01-10T08:38:40.369Z,11.00
2018-01-10T08:41:07.608Z,8.33
2018-01-10T08:43:34.868Z,8.67
2018-01-10T08:46:02.253Z,5.90
2018-01-10T08:48:30.226Z,6.80
2018-01-10T08:50:57.088Z,7.03
2018-01-10T08:53:23.582Z,5.57
2018-01-10T08:55:50.098Z,8.00
2018-01-10T08:58:16.731Z,5.50
2018-01-10T09:00:44.049Z,7.17
2018-01-10T09:03:10.527Z,11.30
2018-01-10T09:05:37.633Z,6.40
2018-01-10T09:08:05.649Z,7.03
2018-01-10T09:10:32.134Z,8.03
2018-01-10T09:12:58.965Z,22.20
2018-01-10T09:15:25.611Z,6.57
2018-01-10T09:17:52.218Z,6.07
2018-01-10T09:20:18.824Z,5.93
2018-01-10T09:22:45.353Z,7.47
2018-01-10T09:25:11.889Z,2.90
2018-01-10T09:27:38.456Z,7.83
2018-01-10T09:30:05.059Z,3.77
2018-01-10T09:32:32.378Z,3.50
2018-01-10T09:34:58.992Z,3.13
2018-01-10T09:37:25.563Z,3.93
2018-01-10T09:39:53.448Z,10.30
2018-01-10T09:42:19.995Z,4.17
2018-01-10T09:44:46.598Z,5.17
2018-01-10T09:47:13.612Z,4.33
2018-01-10T09:49:43.030Z,3.60
2018-01-10T09:52:13.149Z,3.23
2018-01-10T09:54:40.711Z,5.00
2018-01-10T09:57:08.785Z,5.07
2018-01-10T09:59:37.212Z,4.17
2018-01-10T10:02:04.386Z,2.37
2018-01-10T10:04:32.620Z,2.60
2018-01-10T10:07:02.082Z,5.23
2018-01-10T10:09:28.730Z,3.40
2018-01-10T10:11:55.365Z,2.90
2018-01-10T10:14:21.890Z,2.33
2018-01-10T10:16:48.486Z,2.50
2018-01-10T10:19:15.089Z,4.13
2018-01-10T10:21:41.754Z,2.37
2018-01-10T10:24:09.030Z,5.53
2018-01-10T10:26:35.560Z,3.07
2018-01-10T10:29:02.165Z,5.60
2018-01-10T10:31:28.766Z,5.90
2018-01-10T10:33:55.967Z,3.53
2018-01-10T10:36:28.320Z,4.17
2018-01-10T10:38:54.912Z,3.40
2018-01-10T10:41:21.669Z,5.30
2018-01-10T10:43:48.942Z,3.73
2018-01-10T10:46:15.520Z,4.93
2018-01-10T10:48:42.095Z,10.37
2018-01-10T10:51:08.593Z,8.73
2018-01-10T10:53:35.207Z,5.70
2018-01-10T10:56:02.564Z,7.30
2018-01-10T10:58:30.572Z,4.27
2018-01-10T11:00:57.927Z,5.60
2018-01-10T11:03:25.204Z,18.70
2018-01-10T11:05:52.493Z,5.40
2018-01-10T11:08:19.876Z,7.47
2018-01-10T11:10:46.416Z,4.63
2018-01-10T11:13:12.964Z,3.30
2018-01-10T11:15:39.544Z,4.67
2018-01-10T11:18:06.126Z,5.20
2018-01-10T11:20:32.718Z,8.40
2018-01-10T11:22:59.315Z,4.60
2018-01-10T11:25:26.280Z,4.40
2018-01-10T11:27:53.628Z,4.93
2018-01-10T11:30:20.103Z,5.53
2018-01-10T11:32:46.650Z,3.80
2018-01-10T11:35:13.988Z,7.10
2018-01-10T11:37:40.493Z,3.50
2018-01-10T11:40:07.007Z,5.30
2018-01-10T11:42:34.231Z,5.53
2018-01-10T11:45:00.720Z,5.60
2018-01-10T11:47:27.329Z,4.50
2018-01-10T11:49:53.894Z,5.67
2018-01-10T11:52:20.453Z,4.00
2018-01-10T11:54:47.787Z,5.83
2018-01-10T11:57:14.298Z,5.37
2018-01-10T11:59:41.553Z,5.70
2018-01-10T12:02:08.793Z,3.70
2018-01-10T12:04:36.106Z,9.60
2018-01-10T12:07:02.596Z,2.60
2018-01-10T12:09:29.894Z,4.00
2018-01-10T12:11:56.410Z,6.33
2018-01-10T12:14:23.025Z,9.20
2018-01-10T12:16:50.525Z,3.63
2018-01-10T12:19:17.013Z,5.17
2018-01-10T12:21:44.286Z,4.90
2018-01-10T12:24:10.871Z,8.93
2018-01-10T12:26:37.505Z,3.90
2018-01-10T12:29:04.013Z,3.30
2018-01-10T12:31:30.533Z,3.90
2018-01-10T12:33:57.123Z,5.30
2018-01-10T12:36:23.695Z,6.23
2018-01-10T12:38:50.210Z,4.90
2018-01-10T12:41:17.061Z,4.10
2018-01-10T12:43:43.864Z,6.50
2018-01-10T12:46:10.580Z,6.40
2018-01-10T12:48:37.973Z,4.77
2018-01-10T12:51:04.493Z,4.23
2018-01-10T12:53:30.971Z,6.57
2018-01-10T12:55:57.521Z,5.63
2018-01-10T12:58:25.490Z,2.77
2018-01-10T13:00:52.276Z,10.20
2018-01-10T13:03:19.039Z,5.77
2018-01-10T13:05:45.515Z,3.27
2018-01-10T13:08:12.827Z,4.30
2018-01-10T13:10:39.332Z,5.53
2018-01-10T13:13:05.848Z,4.30
2018-01-10T13:15:32.880Z,3.80
2018-01-10T13:17:59.403Z,3.80
2018-01-10T13:20:26.121Z,6.73
2018-01-10T13:22:52.653Z,3.37
2018-01-10T13:25:20.389Z,3.20
2018-01-10T13:27:46.922Z,3.53
2018-01-10T13:30:13.837Z,3.40
2018-01-10T13:32:41.173Z,6.77
2018-01-10T13:35:07.773Z,3.33
2018-01-10T13:37:35.111Z,5.57
2018-01-10T13:40:08.650Z,5.67
2018-01-10T13:42:35.876Z,3.80
2018-01-10T13:45:02.538Z,2.47
2018-01-10T13:47:29.416Z,8.50
2018-01-10T13:49:56.892Z,4.93
2018-01-10T13:52:23.276Z,4.43
2018-01-10T13:54:49.766Z,5.30
2018-01-10T13:57:16.916Z,6.40
2018-01-10T13:59:43.288Z,10.30
2018-01-10T14:02:09.729Z,9.17
2018-01-10T14:04:36.985Z,6.80
2018-01-10T14:07:03.469Z,3.50
2018-01-10T14:09:30.254Z,2.93
2018-01-10T14:11:56.746Z,9.30
2018-01-10T14:14:23.195Z,8.10
2018-01-10T14:16:49.604Z,3.53
2018-01-10T14:19:16.040Z,4.50
2018-01-10T14:21:43.250Z,3.70
2018-01-10T14:24:09.694Z,2.60
2018-01-10T14:26:36.280Z,4.70
2018-01-10T14:29:02.811Z,7.00
2018-01-10T14:31:29.938Z,8.67
2018-01-10T14:33:57.294Z,5.00
2018-01-10T14:36:23.758Z,2.90
2018-01-10T14:38:50.253Z,5.00
2018-01-10T14:41:17.522Z,7.47
2018-01-10T14:43:44.026Z,5.17
2018-01-10T14:46:11.320Z,5.37
2018-01-10T14:48:37.740Z,4.00
2018-01-10T14:51:04.267Z,6.30
2018-01-10T14:53:31.141Z,5.33
2018-01-10T14:55:58.662Z,5.93
2018-01-10T14:58:26.076Z,5.20
2018-01-10T15:00:52.772Z,6.97
2018-01-10T15:03:19.257Z,3.00
2018-01-10T15:05:46.880Z,5.30
2018-01-10T15:08:13.436Z,3.87
2018-01-10T15:10:40.408Z,3.80
2018-01-10T15:13:07.660Z,3.80
2018-01-10T15:15:34.263Z,6.20
2018-01-10T15:18:00.691Z,3.77
2018-01-10T15:20:27.113Z,5.90
2018-01-10T15:22:54.314Z,5.20
2018-01-10T15:25:20.908Z,7.17
2018-01-10T15:27:47.544Z,6.60
2018-01-10T15:30:14.032Z,4.03
2018-01-10T15:32:40.453Z,4.10
2018-01-10T15:35:06.933Z,6.73
2018-01-10T15:37:33.490Z,3.50
2018-01-10T15:40:00.081Z,3.43
2018-01-10T15:42:26.579Z,8.93
2018-01-10T15:44:53.038Z,5.67
2018-01-10T15:47:20.600Z,7.63
2018-01-10T15:49:47.062Z,6.43
2018-01-10T15:52:14.124Z,12.53
2018-01-10T15:54:40.594Z,6.07
2018-01-10T15:57:07.830Z,4.87
2018-01-10T15:59:35.032Z,16.53
2018-01-10T16:02:01.651Z,9.37
2018-01-10T16:04:28.991Z,9.43
2018-01-10T16:06:56.390Z,9.50
2018-01-10T16:09:22.824Z,6.50
2018-01-10T16:11:49.262Z,4.70
2018-01-10T16:14:15.735Z,14.00
2018-01-10T16:16:42.192Z,8.00
2018-01-10T16:19:08.656Z,5.10
2018-01-10T16:21:35.073Z,4.43
2018-01-10T16:24:01.640Z,6.77
2018-01-10T16:26:28.069Z,5.50
2018-01-10T16:28:54.470Z,6.00
2018-01-10T16:31:20.869Z,8.23
2018-01-10T16:33:47.338Z,7.70
2018-01-10T16:36:13.757Z,8.13
2018-01-10T16:38:40.203Z,18.07
2018-01-10T16:41:06.612Z,5.20
2018-01-10T16:43:33.101Z,8.00
2018-01-10T16:45:59.524Z,7.30
2018-01-10T16:48:25.927Z,9.40
2018-01-10T16:50:52.308Z,12.90
2018-01-10T16:53:18.726Z,11.97
2018-01-10T16:55:45.891Z,8.73
2018-01-10T16:58:12.278Z,9.60
2018-01-10T17:00:39.412Z,8.97
2018-01-10T17:03:05.805Z,7.63
2018-01-10T17:05:32.233Z,9.97
2018-01-10T17:07:58.590Z,5.93
2018-01-10T17:10:24.988Z,9.80
2018-01-10T17:12:51.461Z,7.30
2018-01-10T17:15:17.778Z,9.90
2018-01-10T17:17:44.997Z,5.70
2018-01-10T17:20:11.372Z,8.40
2018-01-10T17:22:37.857Z,4.37
2018-01-10T17:25:04.240Z,5.03
2018-01-10T17:27:31.673Z,9.60
2018-01-10T17:29:58.098Z,10.80
2018-01-10T17:32:25.235Z,7.33
2018-01-10T17:34:51.594Z,9.47
2018-01-10T17:37:18.718Z,9.33
2018-01-10T17:39:45.136Z,5.80
2018-01-10T17:42:11.504Z,9.03
2018-01-10T17:44:37.977Z,10.53
2018-01-10T17:47:04.428Z,11.70
2018-01-10T17:49:31.632Z,8.20
2018-01-10T17:51:58.124Z,12.87
2018-01-10T17:54:24.650Z,7.27
2018-01-10T17:56:51.051Z,9.30
2018-01-10T17:59:17.561Z,6.03
2018-01-10T18:01:44.071Z,6.50
2018-01-10T18:04:10.499Z,6.00
2018-01-10T18:06:36.957Z,7.43
2018-01-10T18:09:03.592Z,5.80
2018-01-10T18:11:30.154Z,8.00
2018-01-10T18:13:56.888Z,10.83
2018-01-10T18:16:23.362Z,11.80
2018-01-10T18:18:49.763Z,7.77
2018-01-10T18:21:16.901Z,11.77
2018-01-10T18:23:43.281Z,6.33
2018-01-10T18:26:09.733Z,9.93
2018-01-10T18:28:36.194Z,7.20
2018-01-10T18:31:02.644Z,9.43
2018-01-10T18:33:29.074Z,7.00
2018-01-10T18:35:55.506Z,11.23
2018-01-10T18:38:22.702Z,6.70
2018-01-10T18:40:49.106Z,9.43
2018-01-10T18:43:15.536Z,5.90
2018-01-10T18:45:42.682Z,11.80
2018-01-10T18:48:09.189Z,8.87
2018-01-10T18:50:35.569Z,7.63
2018-01-10T18:53:01.970Z,8.80
2018-01-10T18:55:28.394Z,15.77
2018-01-10T18:57:55.508Z,6.07
2018-01-10T19:00:21.916Z,7.13
2018-01-10T19:02:49.161Z,4.97
2018-01-10T19:05:15.627Z,6.43
2018-01-10T19:07:43.084Z,4.20
2018-01-10T19:10:09.720Z,9.87
2018-01-10T19:12:36.177Z,6.80
2018-01-10T19:15:02.765Z,7.40
2018-01-10T19:17:30.181Z,5.23
2018-01-10T19:19:57.338Z,4.43
2018-01-10T19:22:23.756Z,6.73
2018-01-10T19:24:50.142Z,5.10
2018-01-10T19:27:16.593Z,4.60
2018-01-10T19:29:43.797Z,6.73
2018-01-10T19:32:10.173Z,4.07
2018-01-10T19:34:36.632Z,7.23
2018-01-10T19:37:03.237Z,6.40
2018-01-10T19:39:30.000Z,9.40
2018-01-10T19:41:56.381Z,7.20
2018-01-10T19:44:22.769Z,6.10
2018-01-10T19:46:49.191Z,6.23
2018-01-10T19:49:15.588Z,9.07
2018-01-10T19:51:42.081Z,12.30
2018-01-10T19:54:08.498Z,7.57
2018-01-10T19:56:35.697Z,14.50
2018-01-10T19:59:02.411Z,13.83
2018-01-10T20:01:29.579Z,18.67
2018-01-10T20:03:55.977Z,9.40
2018-01-10T20:06:22.481Z,14.00
2018-01-10T20:08:48.897Z,9.60
2018-01-10T20:11:16.068Z,9.33
2018-01-10T20:13:42.445Z,7.93
2018-01-10T20:16:08.833Z,6.00
2018-01-10T20:18:35.354Z,13.80
2018-01-10T20:21:02.209Z,13.07
2018-01-10T20:23:28.581Z,5.30
2018-01-10T20:25:55.104Z,8.43
2018-01-10T20:28:22.294Z,15.40
2018-01-10T20:30:48.693Z,8.10
2018-01-10T20:33:15.137Z,7.90
2018-01-10T20:35:41.540Z,8.37
2018-01-10T20:38:08.011Z,9.03
2018-01-10T20:40:34.565Z,10.10
2018-01-10T20:43:00.949Z,12.47
2018-01-10T20:45:27.396Z,6.93
2018-01-10T20:47:53.889Z,12.20
2018-01-10T20:50:20.269Z,17.73
2018-01-10T20:52:46.692Z,13.90
2018-01-10T20:55:13.117Z,12.70
2018-01-10T20:57:39.572Z,18.33
2018-01-10T21:00:06.163Z,10.27
2018-01-10T21:02:32.524Z,10.87
2018-01-10T21:04:58.892Z,11.80
2018-01-10T21:07:25.463Z,15.63
2018-01-10T21:09:52.567Z,29.87
2018-01-10T21:12:18.968Z,11.00
2018-01-10T21:14:45.569Z,12.27
2018-01-10T21:17:12.063Z,16.37
2018-01-10T21:19:38.500Z,8.17
2018-01-10T21:22:05.215Z,12.30
2018-01-10T21:24:31.743Z,11.30
2018-01-10T21:26:58.230Z,10.57
2018-01-10T21:29:24.657Z,12.13
2018-01-10T21:31:51.884Z,9.50
2018-01-10T21:34:18.296Z,9.00
2018-01-10T21:36:44.761Z,12.77
2018-01-10T21:39:11.200Z,10.70
2018-01-10T21:41:37.717Z,14.60
2018-01-10T21:44:04.739Z,21.10
2018-01-10T21:46:31.953Z,12.30
2018-01-10T21:48:58.394Z,15.50
2018-01-10T21:51:24.794Z,12.57
2018-01-10T21:53:51.278Z,12.33
2018-01-10T21:56:18.409Z,17.83
2018-01-10T21:58:44.777Z,12.37
2018-01-10T22:01:11.208Z,21.50
2018-01-10T22:03:37.668Z,15.67
2018-01-10T22:06:05.364Z,15.30
2018-01-10T22:08:31.726Z,11.47
2018-01-10T22:10:58.158Z,11.37
2018-01-10T22:13:24.528Z,12.77
2018-01-10T22:15:50.901Z,9.87
2018-01-10T22:18:18.072Z,14.20
2018-01-10T22:20:44.434Z,9.90
2018-01-10T22:23:10.829Z,10.60
2018-01-10T22:25:38.032Z,10.47
2018-01-10T22:28:05.035Z,10.53
2018-01-10T22:30:32.231Z,15.63
2018-01-10T22:32:59.354Z,15.73
2018-01-10T22:35:25.712Z,8.70
2018-01-10T22:37:52.141Z,9.80
2018-01-10T22:40:18.553Z,11.40
2018-01-10T22:42:44.937Z,12.13
2018-01-10T22:45:11.338Z,18.07
2018-01-10T22:47:37.762Z,21.30
2018-01-10T22:50:04.782Z,14.30
2018-01-10T22:52:31.166Z,11.07
2018-01-10T22:54:58.300Z,11.63
2018-01-10T22:57:24.781Z,15.10
2018-01-10T22:59:52.092Z,15.30
2018-01-10T23:02:19.279Z,17.33
2018-01-10T23:04:45.658Z,16.90
2018-01-10T23:07:12.808Z,10.37
2018-01-10T23:09:39.180Z,18.47
2018-01-10T23:12:06.468Z,14.93
2018-01-10T23:14:32.934Z,15.27
2018-01-10T23:16:59.312Z,10.33
2018-01-10T23:19:26.408Z,18.23
2018-01-10T23:21:52.970Z,16.40
2018-01-10T23:24:19.349Z,16.13
2018-01-10T23:26:45.724Z,9.60
2018-01-10T23:29:12.074Z,11.83
2018-01-10T23:31:38.467Z,9.80
2018-01-10T23:34:05.126Z,15.60
2018-01-10T23:36:32.282Z,12.53
2018-01-10T23:38:58.655Z,11.80
2018-01-10T23:41:25.777Z,13.60
2018-01-10T23:43:52.134Z,15.80
2018-01-10T23:46:18.616Z,16.27
2018-01-10T23:48:44.970Z,13.30
2018-01-10T23:51:12.028Z,12.87
2018-01-10T23:53:38.380Z,21.43
2018-01-10T23:56:05.246Z,11.57
2018-01-10T23:58:31.720Z,15.87
